createdAt,value
2023-03-05T00:02:07.101Z,3.80
2023-03-05T00:05:09.344Z,3.77
2023-03-05T00:08:24.373Z,3.89
2023-03-05T00:11:39.382Z,3.71
2023-03-05T00:14:54.415Z,3.69
2023-03-05T00:18:09.328Z,3.71
2023-03-05T00:21:23.699Z,3.86
2023-03-05T00:24:32.406Z,3.87
2023-03-05T00:27:47.365Z,3.76
2023-03-05T00:30:49.275Z,3.67
2023-03-05T00:34:08.318Z,3.72
2023-03-05T00:37:17.418Z,3.66
2023-03-05T00:40:26.408Z,3.68
2023-03-05T00:43:41.342Z,3.64
2023-03-05T00:46:49.475Z,3.51
2023-03-05T00:49:58.177Z,3.59
2023-03-05T00:53:13.381Z,3.71
2023-03-05T00:56:29.383Z,3.58
2023-03-05T00:59:31.701Z,3.61
2023-03-05T01:02:46.404Z,3.70
2023-03-05T01:05:55.194Z,3.73
2023-03-05T01:09:03.345Z,3.67
2023-03-05T01:12:18.445Z,3.70
2023-03-05T01:15:27.226Z,3.62
2023-03-05T01:18:44.373Z,3.80
2023-03-05T01:21:46.176Z,3.81
2023-03-05T01:25:01.379Z,3.79
2023-03-05T01:28:16.309Z,3.89
2023-03-05T01:31:25.364Z,3.82
2023-03-05T01:34:40.357Z,3.82
2023-03-05T01:37:42.222Z,3.81
2023-03-05T01:40:57.478Z,3.77
2023-03-05T01:43:59.553Z,3.58
2023-03-05T01:47:14.350Z,3.58
2023-03-05T01:50:19.898Z,3.61
2023-03-05T01:53:34.341Z,3.52
2023-03-05T01:56:37.928Z,3.76
2023-03-05T01:59:57.385Z,3.69
2023-03-05T02:03:16.362Z,3.67
2023-03-05T02:06:25.108Z,3.73
2023-03-05T02:09:34.373Z,3.80
2023-03-05T02:12:43.161Z,3.92
2023-03-05T02:15:52.386Z,3.88
2023-03-05T02:19:17.365Z,3.83
2023-03-05T02:22:26.077Z,3.71
2023-03-05T02:25:40.442Z,3.77
2023-03-05T02:28:54.370Z,3.88
2023-03-05T02:32:04.107Z,3.88
2023-03-05T02:35:13.357Z,3.90
2023-03-05T02:38:28.396Z,3.79
2023-03-05T02:41:30.184Z,3.90
2023-03-05T02:44:45.378Z,3.96
2023-03-05T02:47:47.271Z,3.99
2023-03-05T02:51:03.365Z,3.99
2023-03-05T02:54:05.482Z,4.00
2023-03-05T02:57:20.412Z,3.90
2023-03-05T03:00:29.417Z,3.96
2023-03-05T03:03:38.742Z,3.85
2023-03-05T03:06:47.442Z,4.11
2023-03-05T03:10:02.413Z,4.18
2023-03-05T03:13:10.373Z,4.05
2023-03-05T03:16:25.444Z,4.02
2023-03-05T03:19:33.361Z,3.97
2023-03-05T03:22:43.770Z,4.07
2023-03-05T03:25:52.353Z,4.13
2023-03-05T03:29:01.227Z,4.15
2023-03-05T03:32:09.489Z,4.13
2023-03-05T03:35:25.459Z,4.10
2023-03-05T03:38:27.578Z,4.05
2023-03-05T03:41:44.390Z,4.20
2023-03-05T03:44:53.425Z,4.21
2023-03-05T03:48:08.429Z,4.14
2023-03-05T03:51:17.381Z,4.24
2023-03-05T03:54:26.070Z,4.34
2023-03-05T03:57:36.427Z,4.21
2023-03-05T04:00:45.133Z,4.15
2023-03-05T04:03:53.582Z,4.28
2023-03-05T04:07:08.456Z,4.39
2023-03-05T04:10:24.413Z,4.39
2023-03-05T04:13:33.310Z,4.36
2023-03-05T04:16:48.472Z,4.34
2023-03-05T04:19:57.068Z,4.44
2023-03-05T04:26:46.080Z,4.30
2023-03-05T04:30:00.451Z,4.29
2023-03-05T04:33:09.226Z,4.36
2023-03-05T04:36:17.449Z,4.32
2023-03-05T04:39:32.449Z,4.41
2023-03-05T04:42:41.966Z,4.51
2023-03-05T04:45:51.409Z,4.44
2023-03-05T04:49:00.195Z,4.46
2023-03-05T04:52:08.506Z,4.24
2023-03-05T04:55:24.428Z,4.46
2023-03-05T04:58:26.562Z,4.47
2023-03-05T05:01:41.469Z,4.52
2023-03-05T05:04:43.387Z,4.53
2023-03-05T05:08:05.439Z,4.60
2023-03-05T05:11:14.749Z,4.70
2023-03-05T05:14:29.437Z,4.72
2023-03-05T05:17:44.831Z,4.72
2023-03-05T05:20:53.435Z,4.67
2023-03-05T05:24:08.427Z,4.67
2023-03-05T05:27:10.578Z,4.54
2023-03-05T05:30:25.433Z,4.62
2023-03-05T05:33:34.534Z,4.70
2023-03-05T05:36:49.457Z,4.81
2023-03-05T05:39:58.222Z,4.76
2023-03-05T05:43:15.445Z,4.80
2023-03-05T05:46:25.485Z,4.84
2023-03-05T05:49:34.218Z,4.86
2023-03-05T05:52:49.444Z,4.82
2023-03-05T05:55:52.290Z,4.74
2023-03-05T05:59:07.465Z,4.87
2023-03-05T06:02:09.348Z,4.95
2023-03-05T06:05:24.464Z,4.84
2023-03-05T06:08:26.233Z,4.88
2023-03-05T06:11:41.478Z,4.83
2023-03-05T06:14:49.481Z,4.85
2023-03-05T06:18:04.786Z,4.88
2023-03-05T06:21:18.459Z,4.96
2023-03-05T06:24:33.436Z,4.87
2023-03-05T06:27:44.650Z,4.83
2023-03-05T06:31:09.527Z,5.04
2023-03-05T06:34:18.474Z,4.92
2023-03-05T06:37:33.687Z,4.74
2023-03-05T06:40:38.414Z,4.89
2023-03-05T06:43:55.543Z,5.02
2023-03-05T06:47:04.456Z,5.06
2023-03-05T06:50:13.227Z,5.04
2023-03-05T06:53:21.512Z,5.02
2023-03-05T06:56:30.323Z,5.18
2023-03-05T06:59:38.455Z,5.15
2023-03-05T07:02:53.501Z,5.12
2023-03-05T07:05:55.398Z,5.29
2023-03-05T07:09:13.498Z,5.30
2023-03-05T07:12:15.415Z,5.39
2023-03-05T07:15:30.439Z,5.43
2023-03-05T07:18:38.937Z,5.56
2023-03-05T07:21:53.461Z,5.60
2023-03-05T07:25:02.217Z,5.53
2023-03-05T07:28:17.486Z,5.51
2023-03-05T07:31:21.894Z,5.41
2023-03-05T07:34:36.484Z,5.46
2023-03-05T07:37:51.565Z,5.40
2023-03-05T07:40:53.662Z,5.46
2023-03-05T07:44:08.509Z,5.39
2023-03-05T07:47:16.696Z,5.50
2023-03-05T07:50:31.545Z,5.49
2023-03-05T07:53:33.500Z,5.54
2023-03-05T07:56:48.542Z,5.57
2023-03-05T07:59:57.859Z,5.57
2023-03-05T08:03:06.501Z,5.59
2023-03-05T08:06:21.503Z,5.68
2023-03-05T08:09:37.541Z,5.86
2023-03-05T08:12:46.155Z,5.74
2023-03-05T08:16:00.599Z,5.86
2023-03-05T08:19:15.838Z,5.74
2023-03-05T08:22:24.503Z,5.83
2023-03-05T08:25:39.518Z,5.84
2023-03-05T08:28:41.573Z,5.90
2023-03-05T08:31:57.635Z,5.86
2023-03-05T08:35:06.823Z,5.98
2023-03-05T08:38:15.502Z,6.12
2023-03-05T08:41:24.048Z,6.17
2023-03-05T08:44:32.553Z,6.27
2023-03-05T08:47:41.173Z,6.31
2023-03-05T08:50:49.508Z,6.42
2023-03-05T08:53:58.841Z,6.41
2023-03-05T08:57:13.539Z,6.37
2023-03-05T09:00:15.869Z,6.44
2023-03-05T09:03:30.553Z,6.37
2023-03-05T09:06:39.273Z,6.59
2023-03-05T09:09:48.575Z,6.52
2023-03-05T09:12:57.117Z,6.57
2023-03-05T09:16:08.589Z,6.77
2023-03-05T09:19:17.242Z,6.83
2023-03-05T09:22:25.556Z,6.87
2023-03-05T09:25:40.506Z,6.90
2023-03-05T09:28:42.596Z,6.99
2023-03-05T09:31:58.598Z,7.12
2023-03-05T09:35:00.508Z,6.94
2023-03-05T09:38:15.542Z,7.01
2023-03-05T09:41:35.529Z,6.90
2023-03-05T09:45:08.903Z,6.99
2023-03-05T09:48:28.549Z,7.30
2023-03-05T09:51:40.415Z,7.14
2023-03-05T09:54:53.508Z,6.94
2023-03-05T09:58:14.388Z,7.03
2023-03-05T10:01:27.591Z,7.20
2023-03-05T10:04:46.541Z,7.25
2023-03-05T10:08:07.537Z,6.97
2023-03-05T10:11:34.581Z,7.09
2023-03-05T10:14:43.192Z,7.15
2023-03-05T10:18:09.605Z,7.26
2023-03-05T10:21:28.354Z,7.29
2023-03-05T10:24:55.567Z,7.47
2023-03-05T10:28:09.831Z,7.35
2023-03-05T10:31:35.624Z,7.38
2023-03-05T10:35:03.710Z,7.20
2023-03-05T10:38:41.556Z,7.36
2023-03-05T10:42:09.565Z,7.51
2023-03-05T10:45:24.371Z,7.12
2023-03-05T10:48:55.576Z,7.43
2023-03-05T10:52:23.586Z,7.48
2023-03-05T10:55:25.356Z,7.37
2023-03-05T10:58:40.623Z,7.35
2023-03-05T11:02:01.279Z,7.47
2023-03-05T11:05:43.571Z,7.37
2023-03-05T11:08:51.584Z,7.37
2023-03-05T11:12:15.018Z,7.24
2023-03-05T11:15:33.645Z,7.17
2023-03-05T11:18:41.950Z,7.30
2023-03-05T11:22:16.610Z,7.13
2023-03-05T11:25:31.624Z,7.41
2023-03-05T11:28:56.391Z,7.43
2023-03-05T11:32:23.785Z,7.64
2023-03-05T11:35:32.158Z,7.52
2023-03-05T11:38:59.623Z,7.17
2023-03-05T11:42:23.618Z,7.26
2023-03-05T11:45:39.592Z,7.38
2023-03-05T11:48:45.189Z,7.58
2023-03-05T11:52:14.581Z,7.42
2023-03-05T11:55:41.873Z,7.99
2023-03-05T11:59:08.586Z,15.81
2023-03-05T12:02:23.275Z,14.40
2023-03-05T12:05:40.613Z,11.86
2023-03-05T12:08:54.285Z,10.67
2023-03-05T12:12:14.586Z,9.45
2023-03-05T12:15:45.688Z,8.83
2023-03-05T12:19:13.741Z,8.90
2023-03-05T12:22:30.678Z,8.77
2023-03-05T12:25:54.620Z,8.58
2023-03-05T12:29:03.573Z,9.18
2023-03-05T12:32:23.631Z,8.88
2023-03-05T12:35:35.107Z,9.70
2023-03-05T12:38:50.698Z,11.68
2023-03-05T12:42:05.741Z,12.78
2023-03-05T12:45:30.574Z,12.29
2023-03-05T12:48:50.850Z,12.69
2023-03-05T12:52:01.645Z,10.67
2023-03-05T12:55:23.276Z,10.05
2023-03-05T12:58:46.641Z,9.76
2023-03-05T13:02:06.670Z,12.47
2023-03-05T13:05:27.628Z,10.85
2023-03-05T13:08:43.668Z,9.39
2023-03-05T13:11:55.702Z,8.77
2023-03-05T13:15:07.658Z,8.58
2023-03-05T13:18:28.695Z,8.45
2023-03-05T13:21:37.773Z,8.47
2023-03-05T13:24:46.605Z,8.43
2023-03-05T13:28:03.705Z,8.30
2023-03-05T13:31:22.716Z,8.28
2023-03-05T13:34:46.861Z,8.35
2023-03-05T13:37:56.749Z,8.13
2023-03-05T13:41:24.663Z,8.04
2023-03-05T13:44:34.822Z,8.17
2023-03-05T13:47:43.714Z,7.91
2023-03-05T13:50:56.450Z,8.18
2023-03-05T13:54:05.669Z,8.10
2023-03-05T13:57:34.431Z,7.91
2023-03-05T14:00:49.724Z,7.98
2023-03-05T14:03:59.610Z,7.88
2023-03-05T14:07:34.725Z,7.63
2023-03-05T14:10:45.751Z,7.63
2023-03-05T14:13:55.745Z,7.67
2023-03-05T14:17:30.701Z,7.59
2023-03-05T14:20:48.658Z,7.35
2023-03-05T14:23:57.683Z,7.37
2023-03-05T14:27:11.725Z,7.32
2023-03-05T14:30:22.522Z,7.43
2023-03-05T14:33:36.693Z,7.46
2023-03-05T14:36:55.701Z,7.37
2023-03-05T14:40:13.696Z,7.38
2023-03-05T14:43:15.866Z,7.48
2023-03-05T14:46:30.835Z,7.44
2023-03-05T14:49:32.733Z,7.62
2023-03-05T14:52:47.674Z,7.61
2023-03-05T14:55:58.686Z,7.56
2023-03-05T14:59:09.069Z,7.34
2023-03-05T15:02:22.758Z,7.44
2023-03-05T15:05:32.026Z,7.14
2023-03-05T15:08:46.694Z,6.94
2023-03-05T15:11:56.741Z,7.06
2023-03-05T15:15:06.005Z,6.97
2023-03-05T15:18:22.660Z,7.15
2023-03-05T15:21:31.366Z,7.06
2023-03-05T15:24:39.675Z,7.12
2023-03-05T15:27:48.389Z,6.99
2023-03-05T15:30:58.262Z,7.09
2023-03-05T15:34:14.733Z,7.12
2023-03-05T15:37:16.618Z,7.12
2023-03-05T15:40:32.708Z,6.97
2023-03-05T15:43:41.376Z,7.00
2023-03-05T15:46:55.798Z,6.83
2023-03-05T15:49:57.732Z,6.78
2023-03-05T15:53:12.727Z,6.38
2023-03-05T15:56:27.754Z,6.56
2023-03-05T15:59:30.004Z,6.53
2023-03-05T16:02:44.694Z,6.31
2023-03-05T16:05:46.508Z,6.37
2023-03-05T16:09:08.711Z,6.33
2023-03-05T16:12:27.986Z,6.35
2023-03-05T16:15:46.786Z,6.35
2023-03-05T16:18:55.811Z,6.30
2023-03-05T16:22:10.697Z,6.35
2023-03-05T16:25:12.757Z,6.35
2023-03-05T16:28:28.712Z,6.38
2023-03-05T16:31:40.839Z,5.91
2023-03-05T16:34:49.430Z,5.66
2023-03-05T16:38:03.848Z,5.69
2023-03-05T16:41:12.766Z,5.72
2023-03-05T16:44:21.597Z,5.71
2023-03-05T16:47:37.156Z,5.78
2023-03-05T16:50:51.769Z,5.76
2023-03-05T16:53:55.614Z,5.73
2023-03-05T16:57:10.831Z,5.75
2023-03-05T17:00:13.478Z,5.70
2023-03-05T17:03:27.722Z,5.65
2023-03-05T17:06:38.804Z,5.66
2023-03-05T17:09:53.785Z,5.66
2023-03-05T17:13:08.785Z,5.47
2023-03-05T17:16:12.498Z,5.61
2023-03-05T17:19:34.725Z,5.70
2023-03-05T17:22:37.001Z,5.65
2023-03-05T17:25:52.797Z,5.70
2023-03-05T17:29:00.755Z,5.53
2023-03-05T17:32:15.825Z,5.57
2023-03-05T17:35:20.081Z,5.74
2023-03-05T17:38:35.761Z,5.58
2023-03-05T17:41:37.592Z,5.59
2023-03-05T17:44:53.744Z,5.51
2023-03-05T17:47:56.723Z,5.44
2023-03-05T17:51:16.860Z,5.45
2023-03-05T17:54:25.792Z,5.43
2023-03-05T17:57:35.815Z,5.38
2023-03-05T18:00:44.748Z,5.28
2023-03-05T18:03:53.932Z,5.06
2023-03-05T18:07:01.802Z,5.27
2023-03-05T18:10:11.677Z,5.16
2023-03-05T18:13:19.745Z,5.42
2023-03-05T18:16:41.812Z,5.45
2023-03-05T18:19:57.769Z,5.47
2023-03-05T18:23:06.481Z,5.37
2023-03-05T18:26:14.760Z,5.30
2023-03-05T18:29:29.829Z,5.30
2023-03-05T18:32:31.699Z,5.52
2023-03-05T18:35:47.849Z,5.44
2023-03-05T18:38:49.765Z,5.48
2023-03-05T18:42:04.772Z,5.33
2023-03-05T18:45:13.777Z,5.43
2023-03-05T18:48:29.814Z,5.36
2023-03-05T18:51:38.786Z,5.33
2023-03-05T18:54:53.861Z,5.38
2023-03-05T18:57:56.202Z,5.30
2023-03-05T19:01:11.813Z,5.26
2023-03-05T19:04:20.566Z,5.38
2023-03-05T19:07:35.820Z,5.40
2023-03-05T19:10:44.561Z,5.37
2023-03-05T19:13:54.799Z,5.41
2023-03-05T19:17:09.818Z,5.28
2023-03-05T19:20:25.118Z,5.37
2023-03-05T19:23:33.798Z,5.36
2023-03-05T19:26:43.105Z,5.33
2023-03-05T19:29:58.828Z,5.22
2023-03-05T19:33:13.797Z,5.35
2023-03-05T19:36:15.837Z,5.32
2023-03-05T19:39:30.852Z,5.36
2023-03-05T19:42:40.046Z,5.32
2023-03-05T19:45:54.845Z,5.28
2023-03-05T19:49:04.299Z,5.31
2023-03-05T19:52:13.897Z,5.31
2023-03-05T19:55:28.777Z,5.30
2023-03-05T19:58:37.612Z,5.27
2023-03-05T20:01:45.898Z,5.27
2023-03-05T20:04:55.638Z,5.27
2023-03-05T20:08:03.790Z,5.24
2023-03-05T20:11:21.801Z,5.29
2023-03-05T20:14:30.795Z,5.18
2023-03-05T20:17:45.917Z,5.18
2023-03-05T20:21:07.806Z,5.15
2023-03-05T20:24:14.296Z,5.25
2023-03-05T20:27:28.814Z,5.22
2023-03-05T20:30:30.834Z,5.10
2023-03-05T20:33:45.827Z,5.10
2023-03-05T20:36:54.370Z,5.16
2023-03-05T20:40:02.879Z,5.13
2023-03-05T20:43:17.785Z,5.11
2023-03-05T20:46:29.098Z,5.20
2023-03-05T20:49:43.858Z,5.17
2023-03-05T20:52:51.810Z,5.23
2023-03-05T20:56:00.501Z,5.20
2023-03-05T20:59:11.954Z,5.05
2023-03-05T21:02:20.508Z,4.96
2023-03-05T21:05:33.881Z,5.09
2023-03-05T21:08:42.856Z,5.11
2023-03-05T21:11:50.860Z,5.05
2023-03-05T21:15:05.859Z,4.91
2023-03-05T21:18:07.771Z,4.98
2023-03-05T21:21:29.918Z,4.96
2023-03-05T21:25:08.226Z,4.85
2023-03-05T21:28:22.853Z,4.60
2023-03-05T21:31:24.797Z,4.76
2023-03-05T21:34:39.843Z,4.81
2023-03-05T21:37:48.876Z,4.75
2023-03-05T21:41:04.824Z,4.85
2023-03-05T21:44:19.886Z,4.88
2023-03-05T21:47:21.694Z,4.82
2023-03-05T21:50:36.846Z,4.66
2023-03-05T21:53:38.897Z,4.65
2023-03-05T21:56:54.229Z,4.79
2023-03-05T22:00:03.744Z,4.78
2023-03-05T22:03:18.882Z,4.83
2023-03-05T22:06:27.868Z,4.71
2023-03-05T22:09:36.431Z,4.97
2023-03-05T22:12:59.850Z,4.87
2023-03-05T22:16:09.172Z,4.89
2023-03-05T22:19:25.814Z,4.90
2023-03-05T22:22:27.701Z,4.90
2023-03-05T22:25:42.856Z,4.90
2023-03-05T22:28:51.891Z,4.70
2023-03-05T22:32:06.946Z,4.92
2023-03-05T22:35:12.832Z,4.88
2023-03-05T22:38:27.848Z,4.95
2023-03-05T22:41:36.885Z,4.97
2023-03-05T22:44:45.496Z,4.75
2023-03-05T22:47:55.884Z,4.82
2023-03-05T22:51:04.889Z,4.88
2023-03-05T22:54:12.886Z,4.90
2023-03-05T22:57:27.923Z,4.86
2023-03-05T23:00:29.790Z,4.76
2023-03-05T23:03:46.012Z,4.74
2023-03-05T23:06:53.878Z,4.83
2023-03-05T23:10:14.948Z,4.81
2023-03-05T23:13:16.817Z,4.68
2023-03-05T23:16:31.862Z,4.74
2023-03-05T23:19:40.322Z,4.80
2023-03-05T23:22:56.057Z,4.94
2023-03-05T23:26:10.832Z,4.84
2023-03-05T23:29:42.382Z,4.90
2023-03-05T23:33:00.959Z,4.86
2023-03-05T23:36:02.736Z,4.71
2023-03-05T23:39:17.873Z,4.53
2023-03-05T23:42:25.923Z,4.64
2023-03-05T23:45:35.302Z,4.51
2023-03-05T23:48:44.198Z,4.54
2023-03-05T23:51:52.503Z,4.32
2023-03-05T23:55:00.910Z,4.58
2023-03-05T23:58:10.089Z,4.68
